Time;durP1;ratioP1;P1;durP2;ratioP2;P2;SDS_P1;SDS_P2;PMS_P1;PMS_P2;Temp;Humidity;BMP_temperature;BMP_pressure;BME280_temperature;BME280_humidity;BME280_pressure;Samples;Min_cycle;Max_cycle;Signal;HPM_P1;HPM_P2
2023/04/21 00:02:16;;;;;;;;;;;8.50;99.90;;;;;;4972889;28;19930;-85
2023/04/21 00:04:44;;;;;;;;;;;8.50;99.90;;;;;;4974967;28;19926;-84
2023/04/21 00:07:10;;;;;;;;;;;8.50;99.90;;;;;;4977450;28;19956;-85
2023/04/21 00:09:35;;;;;;;;;;;8.50;99.90;;;;;;4977468;28;19980;-85
2023/04/21 00:12:01;;;;;;;;;;;8.50;99.90;;;;;;4961316;28;19926;-85
2023/04/21 00:14:27;;;;;;;;;;;8.50;99.90;;;;;;4976281;28;19926;-85
2023/04/21 00:16:52;;;;;;;;;;;8.50;99.90;;;;;;4976505;28;19927;-85
2023/04/21 00:19:21;;;;;;;;;;;8.50;99.90;;;;;;4976532;28;19981;-86
2023/04/21 00:21:47;;;;;;;;;;;8.50;99.90;;;;;;4976828;28;20323;-85
2023/04/21 00:24:12;;;;;;;;;;;8.50;99.90;;;;;;4976467;28;20022;-86
2023/04/21 00:26:38;;;;;;;;;;;8.40;99.90;;;;;;4960091;28;19945;-85
2023/04/21 00:29:04;;;;;;;;;;;8.50;99.90;;;;;;4977012;28;19926;-86
2023/04/21 00:31:29;;;;;;;;;;;8.50;99.90;;;;;;4977046;28;19976;-86
2023/04/21 00:33:55;;;;;;;;;;;8.40;99.90;;;;;;4976150;28;20036;-85
2023/04/21 00:36:20;;;;;;;;;;;8.40;99.90;;;;;;4960267;28;20290;-86
2023/04/21 00:38:46;;;;;;;;;;;8.40;99.90;;;;;;4976067;28;19930;-85
2023/04/21 00:41:12;;;;;;;;;;;8.40;99.90;;;;;;4976025;28;19926;-86
2023/04/21 00:43:57;;;;;;;;;;;8.40;99.90;;;;;;4975979;28;20009;-85
2023/04/21 00:46:23;;;;;;;;;;;8.40;99.90;;;;;;4975649;28;19926;-86
2023/04/21 00:48:48;;;;;;;;;;;8.40;99.90;;;;;;4976558;28;19937;-86
2023/04/21 00:51:14;;;;;;;;;;;8.40;99.90;;;;;;4975741;28;20446;-85
2023/04/21 00:53:39;;;;;;;;;;;8.40;99.90;;;;;;4975822;28;19927;-86
2023/04/21 00:56:05;;;;;;;;;;;8.40;99.90;;;;;;4975895;28;20355;-85
2023/04/21 00:58:32;;;;;;;;;;;8.20;99.90;;;;;;4975869;28;20016;-87
2023/04/21 01:00:58;;;;;;;;;;;8.30;99.90;;;;;;4975115;28;19936;-85
2023/04/21 01:03:23;;;;;;;;;;;8.40;99.90;;;;;;4975632;28;19926;-85
2023/04/21 01:05:49;;;;;;;;;;;8.30;99.90;;;;;;4975652;28;19926;-85
2023/04/21 01:08:15;;;;;;;;;;;8.20;99.90;;;;;;4975451;28;20020;-86
2023/04/21 01:10:41;;;;;;;;;;;8.30;99.90;;;;;;4975280;28;20371;-85
2023/04/21 01:13:06;;;;;;;;;;;8.30;99.90;;;;;;4975206;28;19953;-85
2023/04/21 01:15:32;;;;;;;;;;;8.20;99.90;;;;;;4974877;28;19930;-86
2023/04/21 01:17:58;;;;;;;;;;;6.90;99.90;;;;;;4959250;28;19930;-85
2023/04/21 01:20:23;;;;;;;;;;;8.10;99.90;;;;;;4975450;28;19945;-85
2023/04/21 01:22:50;;;;;;;;;;;8.20;99.90;;;;;;4975099;28;19926;-85
2023/04/21 01:25:17;;;;;;;;;;;8.20;99.90;;;;;;4975337;28;19926;-85
2023/04/21 01:27:43;;;;;;;;;;;8.20;99.90;;;;;;4974942;28;19933;-86
2023/04/21 01:30:08;;;;;;;;;;;8.20;99.90;;;;;;4975526;28;19930;-86
2023/04/21 01:32:34;;;;;;;;;;;8.20;99.90;;;;;;4974831;28;20450;-85
2023/04/21 01:35:00;;;;;;;;;;;8.10;99.90;;;;;;4974886;28;19969;-86
2023/04/21 01:37:27;;;;;;;;;;;8.10;99.90;;;;;;4974749;28;19933;-85
2023/04/21 01:39:54;;;;;;;;;;;8.10;99.90;;;;;;4974792;28;19926;-85
2023/04/21 01:42:21;;;;;;;;;;;8.10;99.90;;;;;;4974263;28;20294;-85
2023/04/21 01:44:48;;;;;;;;;;;8.10;99.90;;;;;;4975238;28;19929;-85
2023/04/21 01:47:14;;;;;;;;;;;8.00;99.90;;;;;;4975370;28;19926;-85
2023/04/21 01:49:40;;;;;;;;;;;8.00;99.90;;;;;;4974410;28;19977;-85
2023/04/21 01:52:06;;;;;;;;;;;8.00;99.90;;;;;;4974234;28;19973;-85
2023/04/21 01:54:31;;;;;;;;;;;8.00;99.90;;;;;;4958010;28;19933;-85
2023/04/21 01:56:57;;;;;;;;;;;7.90;99.90;;;;;;4974447;28;19930;-86
2023/04/21 01:59:22;;;;;;;;;;;7.90;99.90;;;;;;4958418;28;19931;-86
2023/04/21 02:01:48;;;;;;;;;;;8.00;99.90;;;;;;4973923;28;20325;-86
2023/04/21 02:04:14;;;;;;;;;;;8.10;99.90;;;;;;4974479;28;19934;-85
2023/04/21 02:06:40;;;;;;;;;;;8.00;99.90;;;;;;4974963;28;20351;-86
2023/04/21 02:09:05;;;;;;;;;;;8.00;99.90;;;;;;4974294;28;20377;-86
2023/04/21 02:11:31;;;;;;;;;;;8.00;99.90;;;;;;4974170;28;20021;-86
2023/04/21 02:13:57;;;;;;;;;;;8.10;99.90;;;;;;4973607;28;19927;-86
2023/04/21 02:16:25;;;;;;;;;;;8.00;99.90;;;;;;4974073;28;20017;-85
2023/04/21 02:18:55;;;;;;;;;;;8.00;99.90;;;;;;4974343;28;19930;-85
2023/04/21 02:21:21;;;;;;;;;;;7.90;99.90;;;;;;4974775;28;20012;-85
2023/04/21 02:23:47;;;;;;;;;;;7.90;99.90;;;;;;4974291;28;20445;-85
2023/04/21 02:26:12;;;;;;;;;;;8.00;99.90;;;;;;4974020;28;19969;-86
2023/04/21 02:28:38;;;;;;;;;;;8.00;99.90;;;;;;4973306;28;19937;-89
2023/04/21 02:31:04;;;;;;;;;;;7.90;99.90;;;;;;4973947;28;19933;-86
2023/04/21 02:33:30;;;;;;;;;;;8.00;99.90;;;;;;4973739;28;20358;-86
2023/04/21 02:35:55;;;;;;;;;;;7.90;99.90;;;;;;4974549;28;20017;-86
2023/04/21 02:38:21;;;;;;;;;;;7.90;99.90;;;;;;4974497;28;19951;-86
2023/04/21 02:40:46;;;;;;;;;;;7.90;99.90;;;;;;4974485;28;20024;-86
2023/04/21 02:43:18;;;;;;;;;;;7.80;99.90;;;;;;4973679;28;19933;-85
2023/04/21 02:45:44;;;;;;;;;;;7.70;99.90;;;;;;4973799;28;20282;-85
2023/04/21 02:48:10;;;;;;;;;;;7.80;99.90;;;;;;4973409;28;19926;-85
2023/04/21 02:50:36;;;;;;;;;;;7.70;99.90;;;;;;4973957;28;19933;-85
2023/04/21 02:53:02;;;;;;;;;;;7.60;99.90;;;;;;4973620;28;19932;-86
2023/04/21 02:55:28;;;;;;;;;;;7.70;99.90;;;;;;4958234;28;19961;-86
2023/04/21 02:57:54;;;;;;;;;;;7.70;99.90;;;;;;4974241;28;19934;-86
2023/04/21 03:00:19;;;;;;;;;;;7.60;99.90;;;;;;4973024;28;20429;-85
2023/04/21 03:02:45;;;;;;;;;;;7.70;99.90;;;;;;4973418;28;19926;-86
2023/04/21 03:05:11;;;;;;;;;;;7.70;99.90;;;;;;4973455;28;19930;-85
2023/04/21 03:07:37;;;;;;;;;;;5.70;99.90;;;;;;4973544;28;19926;-86
2023/04/21 03:10:03;;;;;;;;;;;7.60;99.90;;;;;;4973304;28;19940;-85
2023/04/21 03:12:28;;;;;;;;;;;7.50;99.90;;;;;;4989907;28;19952;-85
2023/04/21 03:14:54;;;;;;;;;;;7.60;99.90;;;;;;4973100;28;19976;-85
2023/04/21 03:17:19;;;;;;;;;;;7.60;99.90;;;;;;4974406;28;20033;-85
2023/04/21 03:19:45;;;;;;;;;;;7.50;99.90;;;;;;4973634;28;20270;-85
2023/04/21 03:22:10;;;;;;;;;;;7.50;99.90;;;;;;4973381;28;20282;-85
2023/04/21 03:24:36;;;;;;;;;;;7.50;99.90;;;;;;4974371;28;19941;-86
2023/04/21 03:27:02;;;;;;;;;;;7.40;99.90;;;;;;4973623;28;20041;-85
2023/04/21 03:29:27;;;;;;;;;;;7.40;99.90;;;;;;4974201;28;19931;-86
2023/04/21 03:31:53;;;;;;;;;;;7.30;99.90;;;;;;4972937;28;19932;-88
2023/04/21 03:34:18;;;;;;;;;;;7.30;99.90;;;;;;4974033;28;20029;-87
2023/04/21 03:36:44;;;;;;;;;;;7.30;99.90;;;;;;4973312;28;20318;-86
2023/04/21 03:39:10;;;;;;;;;;;7.30;99.90;;;;;;4975516;28;19926;-86
2023/04/21 03:41:35;;;;;;;;;;;7.30;99.90;;;;;;4977519;28;19926;-85
2023/04/21 03:44:01;;;;;;;;;;;7.20;99.90;;;;;;4977177;28;19984;-86
2023/04/21 03:46:27;;;;;;;;;;;7.20;99.90;;;;;;4977073;28;19926;-85
2023/04/21 03:48:52;;;;;;;;;;;7.20;99.90;;;;;;4976576;28;19926;-85
2023/04/21 03:51:18;;;;;;;;;;;7.20;99.90;;;;;;4977019;28;20393;-86
2023/04/21 03:53:43;;;;;;;;;;;7.30;99.90;;;;;;4960830;28;20013;-85
2023/04/21 03:56:09;;;;;;;;;;;7.20;99.90;;;;;;4977718;28;19926;-85
2023/04/21 03:58:37;;;;;;;;;;;7.20;99.90;;;;;;4977020;28;19930;-85
2023/04/21 04:01:04;;;;;;;;;;;7.20;99.90;;;;;;4976130;28;19926;-87
2023/04/21 04:03:29;;;;;;;;;;;7.20;99.90;;;;;;4993150;28;19938;-85
2023/04/21 04:05:55;;;;;;;;;;;7.20;99.90;;;;;;4976844;28;20296;-85
2023/04/21 04:08:20;;;;;;;;;;;7.20;99.90;;;;;;4976777;28;19926;-85
2023/04/21 04:10:46;;;;;;;;;;;7.20;99.90;;;;;;4976723;28;19934;-85
2023/04/21 04:13:12;;;;;;;;;;;7.20;99.90;;;;;;4976527;28;19982;-86
2023/04/21 04:15:37;;;;;;;;;;;7.30;99.90;;;;;;4960611;28;19926;-85
2023/04/21 04:18:03;;;;;;;;;;;7.30;99.90;;;;;;4976618;28;19926;-86
2023/04/21 04:20:28;;;;;;;;;;;7.30;99.90;;;;;;4976512;28;19976;-85
2023/04/21 04:22:54;;;;;;;;;;;7.30;99.90;;;;;;4976774;28;19926;-85
2023/04/21 04:25:20;;;;;;;;;;;7.30;99.90;;;;;;4976469;28;20329;-85
2023/04/21 04:27:48;;;;;;;;;;;7.30;99.90;;;;;;4976742;28;20294;-85
2023/04/21 04:30:13;;;;;;;;;;;7.20;99.90;;;;;;4960136;28;19933;-86
2023/04/21 04:32:40;;;;;;;;;;;7.20;99.90;;;;;;4976745;28;19930;-85
2023/04/21 04:35:06;;;;;;;;;;;7.20;99.90;;;;;;4976301;28;19983;-86
2023/04/21 04:37:33;;;;;;;;;;;7.20;99.90;;;;;;4976280;28;19976;-86
2023/04/21 04:39:59;;;;;;;;;;;7.20;99.90;;;;;;4976281;28;20260;-85
2023/04/21 04:42:24;;;;;;;;;;;7.20;99.90;;;;;;4975854;28;20021;-85
2023/04/21 04:44:53;;;;;;;;;;;7.30;99.90;;;;;;4975525;28;19980;-85
2023/04/21 04:49:54;;;;;;;;;;;7.30;99.90;;;;;;4621062;22;19923;-87
2023/04/21 04:52:20;;;;;;;;;;;6.10;99.90;;;;;;4979791;28;20020;-88
2023/04/21 04:54:46;;;;;;;;;;;7.30;99.90;;;;;;4998488;28;20357;-86
2023/04/21 04:57:11;;;;;;;;;;;7.40;99.90;;;;;;5016249;28;19929;-86
2023/04/21 04:59:40;;;;;;;;;;;7.40;99.90;;;;;;5017593;28;20434;-86
2023/04/21 05:02:06;;;;;;;;;;;7.60;99.90;;;;;;5027270;28;19925;-86
2023/04/21 05:04:32;;;;;;;;;;;7.50;99.90;;;;;;5032999;28;19925;-86
2023/04/21 05:06:58;;;;;;;;;;;7.60;99.90;;;;;;5017980;28;19943;-87
2023/04/21 05:09:24;;;;;;;;;;;7.50;99.90;;;;;;5019992;28;20300;-87
2023/04/21 05:11:50;;;;;;;;;;;7.50;99.90;;;;;;5016674;28;20031;-87
2023/04/21 05:14:16;;;;;;;;;;;7.70;99.90;;;;;;5015414;28;20015;-85
2023/04/21 05:16:45;;;;;;;;;;;7.60;99.90;;;;;;5014741;28;19940;-85
2023/04/21 05:19:10;;;;;;;;;;;7.60;99.90;;;;;;5000365;28;19995;-86
2023/04/21 05:21:36;;;;;;;;;;;7.50;99.90;;;;;;5032620;28;20321;-87
2023/04/21 05:24:02;;;;;;;;;;;7.50;99.90;;;;;;5000810;28;19929;-87
2023/04/21 05:26:28;;;;;;;;;;;7.60;99.90;;;;;;5021954;28;19929;-86
2023/04/21 05:28:56;;;;;;;;;;;7.60;99.90;;;;;;5011929;28;20324;-85
2023/04/21 05:31:22;;;;;;;;;;;7.60;99.90;;;;;;5027226;28;19926;-86
2023/04/21 05:33:49;;;;;;;;;;;7.60;99.90;;;;;;5032854;28;19929;-87
2023/04/21 05:36:14;;;;;;;;;;;7.60;99.90;;;;;;5009075;28;19993;-87
2023/04/21 05:38:40;;;;;;;;;;;7.60;99.90;;;;;;5032811;28;20000;-85
2023/04/21 05:41:06;;;;;;;;;;;7.80;99.90;;;;;;5025384;28;19940;-85
2023/04/21 05:43:35;;;;;;;;;;;7.70;99.90;;;;;;5022196;28;19956;-87
2023/04/21 05:46:01;;;;;;;;;;;7.80;99.90;;;;;;5004817;28;19999;-88
2023/04/21 05:48:29;;;;;;;;;;;7.90;99.90;;;;;;5032863;28;19925;-86
2023/04/21 05:50:55;;;;;;;;;;;8.00;99.90;;;;;;5015581;28;19932;-87
2023/04/21 05:53:22;;;;;;;;;;;7.90;99.90;;;;;;5049186;28;19925;-88
2023/04/21 05:55:48;;;;;;;;;;;8.00;99.90;;;;;;5034850;28;19925;-87
2023/04/21 05:58:14;;;;;;;;;;;8.20;99.90;;;;;;5053636;28;19925;-88
2023/04/21 06:00:39;;;;;;;;;;;8.20;99.90;;;;;;5023368;28;19973;-87
2023/04/21 06:03:05;;;;;;;;;;;8.30;99.90;;;;;;5032379;28;19932;-88
2023/04/21 06:05:31;;;;;;;;;;;8.30;99.90;;;;;;5032323;28;20004;-87
2023/04/21 06:07:57;;;;;;;;;;;8.40;99.90;;;;;;5016612;28;19964;-88
2023/04/21 06:10:23;;;;;;;;;;;8.60;99.90;;;;;;5012926;28;19987;-88
2023/04/21 06:12:51;;;;;;;;;;;9.20;99.90;;;;;;5006549;28;19925;-88
2023/04/21 06:15:17;;;;;;;;;;;7.40;99.90;;;;;;5022175;28;20369;-89
2023/04/21 06:17:45;;;;;;;;;;;7.70;99.90;;;;;;5032411;28;19932;-88
2023/04/21 06:20:11;;;;;;;;;;;8.90;99.90;;;;;;5005487;28;20024;-86
2023/04/21 06:22:36;;;;;;;;;;;8.90;99.90;;;;;;5002653;28;20429;-86
2023/04/21 06:25:02;;;;;;;;;;;9.00;99.90;;;;;;4989384;28;20025;-86
2023/04/21 06:27:45;;;;;;;;;;;7.90;99.90;;;;;;5013002;28;19948;-87
2023/04/21 06:30:14;;;;;;;;;;;9.20;99.90;;;;;;5028166;28;19929;-90
2023/04/21 06:32:40;;;;;;;;;;;9.30;99.90;;;;;;5002471;28;19936;-88
2023/04/21 06:35:06;;;;;;;;;;;9.40;99.90;;;;;;5024427;28;19925;-89
2023/04/21 06:37:37;;;;;;;;;;;9.30;99.90;;;;;;5014410;28;19936;-91
2023/04/21 06:40:13;;;;;;;;;;;;;;;;;;;;;
2023/04/21 06:43:00;;;;;;;;;;;9.60;99.90;;;;;;5013722;28;19937;-89
2023/04/21 06:45:55;;;;;;;;;;;9.80;99.90;;;;;;5028147;28;19929;-90
2023/04/21 06:48:23;;;;;;;;;;;9.90;99.90;;;;;;4987470;28;20277;-89
2023/04/21 06:51:14;;;;;;;;;;;9.90;99.90;;;;;;5010196;28;21206;-91
2023/04/21 06:53:42;;;;;;;;;;;10.30;99.90;;;;;;5013037;28;19932;-88
2023/04/21 06:56:08;;;;;;;;;;;10.00;99.90;;;;;;4997758;28;19936;-87
2023/04/21 06:58:36;;;;;;;;;;;10.00;99.90;;;;;;4997887;28;20008;-87
2023/04/21 07:01:02;;;;;;;;;;;10.20;99.90;;;;;;5004783;28;19933;-86
2023/04/21 07:03:28;;;;;;;;;;;10.10;99.90;;;;;;5010493;28;19929;-85
2023/04/21 07:05:53;;;;;;;;;;;10.40;99.90;;;;;;5022778;28;20004;-87
2023/04/21 07:08:19;;;;;;;;;;;10.10;99.90;;;;;;5008932;28;20272;-89
2023/04/21 07:10:47;;;;;;;;;;;10.10;99.90;;;;;;5006046;28;19936;-88
2023/04/21 07:13:18;;;;;;;;;;;9.10;99.90;;;;;;5023827;28;20014;-87
2023/04/21 07:16:23;;;;;;;;;;;10.90;99.90;;;;;;5006536;28;19925;-90
2023/04/21 07:18:54;;;;;;;;;;;10.50;99.90;;;;;;5011415;28;19968;-87
2023/04/21 07:21:20;;;;;;;;;;;10.40;99.90;;;;;;5016974;28;19925;-89
2023/04/21 07:23:49;;;;;;;;;;;10.80;99.90;;;;;;5032719;28;19929;-88
2023/04/21 07:26:17;;;;;;;;;;;10.70;99.90;;;;;;5012428;28;19944;-88
2023/04/21 07:28:42;;;;;;;;;;;10.50;99.90;;;;;;5018018;28;19925;-88
2023/04/21 07:31:11;;;;;;;;;;;10.10;99.90;;;;;;5029491;28;19932;-88
2023/04/21 07:33:36;;;;;;;;;;;9.90;99.90;;;;;;5032542;28;19941;-87
2023/04/21 07:36:05;;;;;;;;;;;10.70;99.90;;;;;;5007427;28;19936;-85
2023/04/21 07:38:30;;;;;;;;;;;8.90;99.90;;;;;;5032872;28;19929;-85
2023/04/21 07:40:56;;;;;;;;;;;11.00;99.90;;;;;;5012878;28;19932;-89
2023/04/21 07:43:25;;;;;;;;;;;10.80;99.90;;;;;;5016966;28;19925;-87
2023/04/21 07:45:51;;;;;;;;;;;11.10;99.90;;;;;;5013597;28;19933;-86
2023/04/21 07:48:20;;;;;;;;;;;11.10;99.90;;;;;;5016051;28;20035;-87
2023/04/21 07:50:45;;;;;;;;;;;11.10;99.90;;;;;;5017742;28;19965;-87
2023/04/21 07:53:11;;;;;;;;;;;10.40;99.90;;;;;;5012593;28;19980;-86
2023/04/21 07:55:37;;;;;;;;;;;11.50;99.90;;;;;;5010187;28;19926;-86
2023/04/21 07:58:06;;;;;;;;;;;11.30;99.90;;;;;;5012271;28;19926;-85
2023/04/21 08:00:32;;;;;;;;;;;11.60;99.90;;;;;;5006344;28;19936;-87
2023/04/21 08:02:57;;;;;;;;;;;11.90;99.90;;;;;;4996159;28;19926;-86
2023/04/21 08:05:23;;;;;;;;;;;11.40;99.90;;;;;;4990667;28;19932;-88
2023/04/21 08:07:51;;;;;;;;;;;11.90;99.90;;;;;;4987243;28;19926;-88
2023/04/21 08:10:23;;;;;;;;;;;11.60;99.90;;;;;;4995994;28;20266;-90
2023/04/21 08:12:49;;;;;;;;;;;11.90;99.90;;;;;;4994361;28;20388;-88
2023/04/21 08:15:24;;;;;;;;;;;11.90;99.90;;;;;;4992860;28;20007;-91
2023/04/21 08:17:52;;;;;;;;;;;12.00;99.90;;;;;;4999075;28;20300;-89
2023/04/21 08:20:17;;;;;;;;;;;12.10;99.90;;;;;;5013464;28;20005;-88
2023/04/21 08:22:43;;;;;;;;;;;12.10;99.90;;;;;;4982601;28;20366;-88
2023/04/21 08:25:09;;;;;;;;;;;12.10;99.90;;;;;;4974849;28;19980;-87
2023/04/21 08:27:44;;;;;;;;;;;10.20;99.90;;;;;;5004817;28;19929;-88
2023/04/21 08:30:10;;;;;;;;;;;12.10;99.90;;;;;;4987455;28;19936;-91
2023/04/21 08:32:39;;;;;;;;;;;12.40;99.90;;;;;;5008434;28;19926;-89
2023/04/21 08:35:08;;;;;;;;;;;12.70;99.90;;;;;;5012581;28;19930;-87
2023/04/21 08:37:37;;;;;;;;;;;13.10;99.90;;;;;;4996771;28;20023;-87
2023/04/21 08:40:06;;;;;;;;;;;12.60;99.90;;;;;;5012971;28;20016;-87
2023/04/21 08:42:33;;;;;;;;;;;12.30;99.90;;;;;;4994343;28;20052;-86
2023/04/21 08:45:01;;;;;;;;;;;12.70;99.90;;;;;;4993680;28;20276;-87
2023/04/21 08:47:27;;;;;;;;;;;11.20;99.90;;;;;;4993125;28;19951;-87
2023/04/21 08:49:53;;;;;;;;;;;13.00;99.90;;;;;;4993876;28;20331;-86
2023/04/21 08:52:19;;;;;;;;;;;13.00;99.90;;;;;;5030952;28;19964;-87
2023/04/21 08:54:46;;;;;;;;;;;14.90;99.90;;;;;;5011340;28;20588;-89
2023/04/21 08:57:14;;;;;;;;;;;11.40;99.90;;;;;;5015225;28;19932;-88
2023/04/21 08:59:54;;;;;;;;;;;13.70;99.90;;;;;;5000512;28;20560;-90
2023/04/21 09:02:25;;;;;;;;;;;13.70;99.90;;;;;;5014812;28;19965;-89
2023/04/21 09:04:54;;;;;;;;;;;13.60;99.90;;;;;;4997089;28;19976;-88
2023/04/21 09:07:49;;;;;;;;;;;13.80;99.90;;;;;;4996264;28;19926;-89
2023/04/21 09:10:20;;;;;;;;;;;13.80;99.90;;;;;;5003223;28;19930;-87
2023/04/21 09:12:49;;;;;;;;;;;13.90;99.90;;;;;;5008824;28;20012;-86
2023/04/21 09:15:15;;;;;;;;;;;13.90;99.90;;;;;;5012997;28;20393;-88
2023/04/21 09:17:44;;;;;;;;;;;14.10;99.90;;;;;;5028300;28;19969;-91
2023/04/21 09:20:15;;;;;;;;;;;14.00;99.90;;;;;;5009946;28;19934;-90
2023/04/21 09:22:43;;;;;;;;;;;14.10;99.90;;;;;;5024760;28;19972;-88
2023/04/21 09:25:09;;;;;;;;;;;14.20;99.90;;;;;;5016688;28;19933;-91
2023/04/21 09:27:40;;;;;;;;;;;14.30;99.90;;;;;;5024884;28;20376;-87
2023/04/21 09:30:14;;;;;;;;;;;14.30;99.90;;;;;;5011300;28;19929;-88
2023/04/21 09:32:53;;;;;;;;;;;;;;;;;;;;;
2023/04/21 09:35:19;;;;;;;;;;;13.30;99.90;;;;;;5034571;28;19925;-92
2023/04/21 09:37:47;;;;;;;;;;;14.80;99.90;;;;;;5016896;28;19979;-90
2023/04/21 09:40:14;;;;;;;;;;;14.60;99.90;;;;;;5031941;28;20003;-89
2023/04/21 09:42:44;;;;;;;;;;;14.80;99.90;;;;;;5008040;28;19937;-92
2023/04/21 09:45:13;;;;;;;;;;;14.90;99.90;;;;;;4986101;28;19987;-90
2023/04/21 09:47:49;;;;;;;;;;;14.90;99.90;;;;;;4998581;28;19976;-87
2023/04/21 09:50:16;;;;;;;;;;;15.40;99.90;;;;;;5025171;28;19935;-89
2023/04/21 09:53:01;;;;;;;;;;;15.30;99.90;;;;;;5022375;28;19932;-89
2023/04/21 09:55:38;;;;;;;;;;;13.70;99.90;;;;;;5028347;28;20011;-93
2023/04/21 09:58:05;;;;;;;;;;;15.50;99.90;;;;;;5020790;28;19913;-94
2023/04/21 10:00:39;;;;;;;;;;;15.50;99.90;;;;;;5042784;28;20444;-90
2023/04/21 10:03:09;;;;;;;;;;;14.20;99.90;;;;;;5034873;28;19930;-90
2023/04/21 10:05:37;;;;;;;;;;;15.70;99.90;;;;;;5027829;28;19941;-89
2023/04/21 10:08:05;;;;;;;;;;;15.80;99.90;;;;;;5019353;28;19947;-93
2023/04/21 10:10:34;;;;;;;;;;;15.90;99.90;;;;;;5013060;28;20325;-88
2023/04/21 10:13:02;;;;;;;;;;;15.90;99.90;;;;;;5000865;28;19933;-89
2023/04/21 10:15:41;;;;;;;;;;;16.00;99.90;;;;;;5025259;28;20280;-86
2023/04/21 10:18:15;;;;;;;;;;;16.10;99.90;;;;;;5009270;28;19973;-90
2023/04/21 10:20:54;;;;;;;;;;;16.20;99.90;;;;;;5013990;28;19925;-90
2023/04/21 10:23:30;;;;;;;;;;;16.20;99.90;;;;;;5010622;28;19960;-90
2023/04/21 10:26:09;;;;;;;;;;;16.50;99.90;;;;;;5013306;28;19948;-89
2023/04/21 10:28:44;;;;;;;;;;;17.00;99.90;;;;;;5012797;28;19936;-89
2023/04/21 10:31:31;;;;;;;;;;;16.70;99.90;;;;;;5020103;28;19925;-91
2023/04/21 10:34:12;;;;;;;;;;;16.70;99.90;;;;;;5030557;28;20068;-89
2023/04/21 10:36:46;;;;;;;;;;;16.80;99.90;;;;;;5006086;28;20048;-88
2023/04/21 10:39:34;;;;;;;;;;;17.20;99.90;;;;;;5008575;28;19926;-86
2023/04/21 10:42:12;;;;;;;;;;;16.90;99.90;;;;;;5025032;28;19948;-87
2023/04/21 10:44:41;;;;;;;;;;;17.10;99.90;;;;;;5007414;28;19925;-90
2023/04/21 10:47:07;;;;;;;;;;;17.10;99.90;;;;;;5010929;28;19941;-87
2023/04/21 10:49:37;;;;;;;;;;;17.30;99.90;;;;;;5015603;28;19929;-91
2023/04/21 10:52:03;;;;;;;;;;;17.30;99.90;;;;;;5015996;28;20028;-89
2023/04/21 10:54:45;;;;;;;;;;;17.40;99.90;;;;;;5008059;28;19939;-87
2023/04/21 10:57:12;;;;;;;;;;;17.50;99.90;;;;;;5012630;28;20612;-88
2023/04/21 10:59:38;;;;;;;;;;;18.00;99.90;;;;;;5028376;28;19925;-88
2023/04/21 11:02:17;;;;;;;;;;;17.60;99.90;;;;;;5008369;28;19925;-89
2023/04/21 11:04:46;;;;;;;;;;;18.00;99.90;;;;;;5009237;28;19925;-86
2023/04/21 11:07:13;;;;;;;;;;;17.60;99.60;;;;;;5010904;28;19933;-89
2023/04/21 11:09:41;;;;;;;;;;;18.00;99.90;;;;;;5007692;28;19971;-89
2023/04/21 11:12:10;;;;;;;;;;;18.00;99.90;;;;;;5015280;28;19925;-88
2023/04/21 11:14:42;;;;;;;;;;;18.10;98.10;;;;;;5006875;28;19930;-91
2023/04/21 11:17:14;;;;;;;;;;;18.30;98.50;;;;;;4995979;28;19925;-89
2023/04/21 11:19:43;;;;;;;;;;;18.10;98.10;;;;;;5028159;28;19929;-89
2023/04/21 11:22:08;;;;;;;;;;;18.40;98.40;;;;;;5029321;28;19930;-89
2023/04/21 11:24:35;;;;;;;;;;;18.50;98.90;;;;;;5015087;28;19986;-89
2023/04/21 11:27:06;;;;;;;;;;;18.40;98.30;;;;;;5031924;28;19925;-89
2023/04/21 11:29:45;;;;;;;;;;;18.30;96.90;;;;;;5013147;28;19929;-90
2023/04/21 11:32:12;;;;;;;;;;;18.50;97.40;;;;;;5007428;28;19925;-89
2023/04/21 11:34:41;;;;;;;;;;;18.40;96.70;;;;;;5003811;28;19925;-89
2023/04/21 11:37:10;;;;;;;;;;;19.60;97.10;;;;;;5017225;28;19933;-92
2023/04/21 11:39:42;;;;;;;;;;;17.10;96.00;;;;;;5011184;28;19936;-90
2023/04/21 11:42:08;;;;;;;;;;;18.20;95.60;;;;;;5011177;28;19925;-88
2023/04/21 11:44:38;;;;;;;;;;;18.00;95.40;;;;;;5010028;28;19932;-91
2023/04/21 11:47:15;;;;;;;;;;;17.90;96.50;;;;;;5007234;28;19932;-88
2023/04/21 11:50:08;;;;;;;;;;;18.20;94.40;;;;;;4996484;28;19925;-88
2023/04/21 11:52:47;;;;;;;;;;;18.60;94.80;;;;;;5023374;28;19929;-90
2023/04/21 11:55:17;;;;;;;;;;;18.80;94.40;;;;;;5008822;28;20343;-89
2023/04/21 11:57:50;;;;;;;;;;;19.10;91.80;;;;;;5009845;28;19929;-90
2023/04/21 12:00:16;;;;;;;;;;;19.00;91.50;;;;;;5011525;28;19978;-89
2023/04/21 12:02:55;;;;;;;;;;;18.20;84.50;;;;;;4999935;28;19929;-88
2023/04/21 12:08:31;;;;;;;;;;;19.20;80.60;;;;;;5018112;28;19933;-90
2023/04/21 12:10:59;;;;;;;;;;;19.60;82.40;;;;;;5010514;28;19961;-87
2023/04/21 12:13:30;;;;;;;;;;;19.50;78.30;;;;;;5015176;28;19978;-89
2023/04/21 12:15:56;;;;;;;;;;;19.50;75.20;;;;;;5008861;28;19929;-90
2023/04/21 12:18:28;;;;;;;;;;;19.60;79.30;;;;;;5015314;28;19933;-89
2023/04/21 12:20:53;;;;;;;;;;;19.60;76.50;;;;;;4994665;28;20365;-90
2023/04/21 12:23:19;;;;;;;;;;;19.50;75.80;;;;;;4952838;28;19934;-89
2023/04/21 12:25:50;;;;;;;;;;;19.60;73.00;;;;;;4976753;28;19933;-92
2023/04/21 12:28:22;;;;;;;;;;;19.80;75.70;;;;;;4966875;28;19969;-88
2023/04/21 12:30:48;;;;;;;;;;;20.10;73.90;;;;;;4958596;28;20421;-89
2023/04/21 12:33:25;;;;;;;;;;;20.20;73.70;;;;;;4962208;28;19926;-91
2023/04/21 12:36:01;;;;;;;;;;;20.10;76.10;;;;;;4975602;28;20004;-90
2023/04/21 12:38:30;;;;;;;;;;;20.10;73.20;;;;;;4961752;28;19933;-88
2023/04/21 12:41:14;;;;;;;;;;;19.90;70.80;;;;;;4962895;28;19930;-90
2023/04/21 12:43:51;;;;;;;;;;;19.70;72.30;;;;;;4966816;28;19965;-89
2023/04/21 12:46:19;;;;;;;;;;;19.50;73.40;;;;;;4960224;28;19932;-88
2023/04/21 12:48:47;;;;;;;;;;;19.50;70.40;;;;;;4964070;28;19930;-87
2023/04/21 12:51:13;;;;;;;;;;;19.40;73.40;;;;;;4965147;28;19931;-88
2023/04/21 12:53:39;;;;;;;;;;;19.50;70.60;;;;;;4998751;28;19929;-89
2023/04/21 12:56:09;;;;;;;;;;;19.60;69.70;;;;;;4998065;28;19929;-88
2023/04/21 12:58:44;;;;;;;;;;;19.20;72.20;;;;;;5012402;28;20535;-88
2023/04/21 13:01:15;;;;;;;;;;;19.40;73.00;;;;;;5012368;28;20287;-89
2023/04/21 13:03:43;;;;;;;;;;;19.50;71.60;;;;;;4999282;28;19956;-90
2023/04/21 13:06:11;;;;;;;;;;;19.70;71.20;;;;;;5006584;28;19999;-87
2023/04/21 13:08:37;;;;;;;;;;;19.70;72.90;;;;;;5011124;28;19925;-89
2023/04/21 13:11:05;;;;;;;;;;;19.60;74.20;;;;;;5002270;28;20744;-90
2023/04/21 13:13:31;;;;;;;;;;;19.70;71.10;;;;;;5016174;28;19929;-88
2023/04/21 13:15:59;;;;;;;;;;;19.70;69.30;;;;;;5015112;28;19934;-88
2023/04/21 13:18:34;;;;;;;;;;;19.70;71.40;;;;;;5007916;28;19928;-91
2023/04/21 13:21:09;;;;;;;;;;;19.80;67.90;;;;;;5014796;28;19979;-92
2023/04/21 13:23:35;;;;;;;;;;;19.80;66.60;;;;;;5016496;28;19977;-88
2023/04/21 13:26:08;;;;;;;;;;;19.80;64.70;;;;;;5029970;28;19968;-89
2023/04/21 13:28:36;;;;;;;;;;;19.80;65.30;;;;;;5005109;28;19929;-90
2023/04/21 13:31:02;;;;;;;;;;;18.50;65.40;;;;;;5006304;28;19925;-90
2023/04/21 13:33:33;;;;;;;;;;;20.00;68.00;;;;;;5030105;28;19933;-89
2023/04/21 13:36:02;;;;;;;;;;;20.30;65.30;;;;;;5003058;28;20028;-89
2023/04/21 13:38:31;;;;;;;;;;;20.20;62.80;;;;;;5006230;28;20019;-86
2023/04/21 13:40:57;;;;;;;;;;;20.10;62.00;;;;;;5026889;28;19926;-88
2023/04/21 13:43:23;;;;;;;;;;;20.20;62.30;;;;;;5016715;28;19936;-89
2023/04/21 13:45:51;;;;;;;;;;;20.00;63.00;;;;;;5022452;28;19979;-87
2023/04/21 13:48:28;;;;;;;;;;;19.90;61.50;;;;;;5012779;28;19925;-91
2023/04/21 13:50:56;;;;;;;;;;;19.10;61.00;;;;;;5041876;28;19948;-90
2023/04/21 13:53:32;;;;;;;;;;;18.50;62.90;;;;;;5007141;28;20266;-91
2023/04/21 13:56:35;;;;;;;;;;;21.10;64.90;;;;;;4998374;28;19952;-91
2023/04/21 13:59:01;;;;;;;;;;;19.80;62.20;;;;;;5012269;28;19926;-89
2023/04/21 14:01:29;;;;;;;;;;;19.80;61.70;;;;;;5027226;28;20384;-88
2023/04/21 14:03:55;;;;;;;;;;;19.90;61.60;;;;;;5010595;28;20332;-89
2023/04/21 14:06:21;;;;;;;;;;;20.00;61.60;;;;;;4998339;28;20062;-88
2023/04/21 14:08:47;;;;;;;;;;;20.00;64.10;;;;;;5003464;28;20012;-87
2023/04/21 14:11:13;;;;;;;;;;;20.20;63.20;;;;;;5013500;28;19925;-87
2023/04/21 14:13:41;;;;;;;;;;;20.20;61.70;;;;;;5030350;28;19932;-90
2023/04/21 14:16:09;;;;;;;;;;;20.30;62.20;;;;;;5006602;28;19961;-90
2023/04/21 14:18:37;;;;;;;;;;;20.30;62.00;;;;;;5006117;28;20922;-91
2023/04/21 14:21:05;;;;;;;;;;;20.30;63.00;;;;;;5012804;28;19936;-89
2023/04/21 14:23:31;;;;;;;;;;;20.30;61.60;;;;;;5012008;28;19925;-86
2023/04/21 14:26:01;;;;;;;;;;;20.30;61.90;;;;;;4989610;28;19940;-89
2023/04/21 14:28:27;;;;;;;;;;;20.20;59.40;;;;;;5015844;28;19929;-89
2023/04/21 14:30:53;;;;;;;;;;;20.00;61.20;;;;;;5002915;28;19936;-88
2023/04/21 14:33:21;;;;;;;;;;;19.90;61.80;;;;;;5013852;28;20015;-89
2023/04/21 14:35:47;;;;;;;;;;;21.20;60.40;;;;;;5008564;28;19991;-89
2023/04/21 14:38:15;;;;;;;;;;;19.80;61.70;;;;;;5014379;28;19936;-87
2023/04/21 14:40:43;;;;;;;;;;;19.80;60.40;;;;;;5010130;28;19925;-88